Terminal Aerodrome Forecast
Issued by NWS Wilmington, OH

Current Version | Previous Version | Graphics & Text | Print | Product List | Glossary On
Versions: 1 2 3 4 5 6 7 8 9 10 11 12 13 14 15 16 17 18 19 20 21
766
FTUS41 KILN 011349 AAC
TAFILN
TAF AMD
KILN 011349Z 0114/0212 23010KT 5SM SHRA BR VCTS OVC045CB
      TEMPO 0114/0115 3SM -TSRA OVC035CB
     FM011600 24015G26KT P6SM VCSH BKN035
     FM011800 25018G30KT P6SM BKN025
     FM012200 28018G29KT P6SM BKN050
     FM020500 30012G20KT P6SM SCT050
     FM021000 29007KT P6SM SCT050=

USA.gov is the U.S. government's official web portal to all federal, state and local government web resources and services.